Auburn, Illinois
Current Conditions -  °F | °C
As of 7:52 AM on Monday 20 Oct 2014 (Local Time) from KSPI Reporting Station
Clear Clear  
Wind Chill: 12°   Ceiling: Unl
Heat Index: 12°   Visibility: 10mi
Dew Point:   Wind: 9mph
Humidity: 83%   Direction: 250°WSW
Pressure: 29.92"   Gusts: NA
Location:  39.59°N, 89.75°W
Report Text: KSPI 201252Z 25008KT 10SM CLR 12/09 A2992 RMK AO2 SLP134 T01170089
Loading
Personal Weather Stations






























Interactive Weather Map
Tropical Storm Tracking
New forecast layout! Learn more

10-Day Weather Forecast

Advertisements
Track Severe Weather on mobile